Terminal Aerodrome Forecast
Issued by NWS Lake Charles, LA

Home | Current Version | Previous Version | Text Only | Print | Product List | Glossary On
Versions: 1 2 3 4 5 6 7 8 9 10 11 12 13 14 15 16
000
FTUS44 KLCH 021100
TAFBPT
TAF
KBPT 021128Z 0212/0312 16005KT P6SM VCSH SCT020 SCT100
     FM021500 15010KT P6SM VCSH SCT025 SCT035
     FM021800 14012KT P6SM VCTS SCT030CB BKN050 PROB30 0221/0224 3SM
      TSRA BKN025CB
     FM030100 14004KT P6SM FEW060 BKN200=

USA.gov is the U.S. government's official web portal to all federal, state and local government web resources and services.